Time;durP1;ratioP1;P1;durP2;ratioP2;P2;SDS_P1;SDS_P2;PMS_P1;PMS_P2;Temp;Humidity;BMP_temperature;BMP_pressure;BME280_temperature;BME280_humidity;BME280_pressure;Samples;Min_cycle;Max_cycle;Signal;HPM_P1;HPM_P2
2022/04/17 00:02:02;;;;;;;7.47;3.67;;;11.90;44.80;;;;;;5054812;28;20108;-64
2022/04/17 00:04:27;;;;;;;9.60;4.28;;;11.90;44.90;;;;;;5053915;28;20048;-65
2022/04/17 00:06:53;;;;;;;7.85;3.92;;;11.90;44.90;;;;;;5053856;28;20047;-64
2022/04/17 00:09:19;;;;;;;8.85;4.10;;;11.90;45.10;;;;;;5043687;28;20059;-64
2022/04/17 00:11:45;;;;;;;9.23;4.57;;;11.80;45.20;;;;;;5039575;28;20409;-63
2022/04/17 00:14:11;;;;;;;8.60;4.18;;;11.80;45.30;;;;;;5053938;28;20056;-64
2022/04/17 00:16:40;;;;;;;8.40;3.92;;;11.70;45.40;;;;;;5054035;28;20064;-64
2022/04/17 00:19:06;;;;;;;8.35;4.07;;;11.70;45.70;;;;;;5053299;28;20044;-64
2022/04/17 00:21:32;;;;;;;7.65;4.00;;;11.70;45.90;;;;;;5041351;28;20404;-64
2022/04/17 00:23:58;;;;;;;9.55;4.63;;;11.60;46.10;;;;;;5054077;28;20090;-63
2022/04/17 00:26:24;;;;;;;10.93;5.40;;;11.60;46.30;;;;;;5054211;28;20045;-64
2022/04/17 00:28:49;;;;;;;9.32;5.65;;;11.50;46.30;;;;;;5052706;28;20029;-64
2022/04/17 00:31:15;;;;;;;9.02;4.70;;;11.50;46.40;;;;;;5040138;28;20049;-64
2022/04/17 00:33:40;;;;;;;8.40;4.95;;;11.50;46.40;;;;;;5050121;28;20049;-64
2022/04/17 00:36:06;;;;;;;10.23;5.13;;;11.40;46.50;;;;;;5055983;28;20473;-64
2022/04/17 00:38:31;;;;;;;8.90;4.65;;;11.40;46.70;;;;;;5053741;28;20035;-64
2022/04/17 00:40:57;;;;;;;10.32;4.40;;;11.40;47.00;;;;;;5057733;28;20032;-64
2022/04/17 00:43:30;;;;;;;8.75;5.35;;;11.40;47.30;;;;;;5057073;28;20065;-64
2022/04/17 00:46:00;;;;;;;9.43;4.80;;;11.30;47.50;;;;;;5056823;28;20083;-64
2022/04/17 00:48:26;;;;;;;8.93;4.63;;;11.30;47.70;;;;;;5052629;28;20420;-64
2022/04/17 00:50:55;;;;;;;9.88;4.70;;;11.20;47.80;;;;;;5056970;28;20100;-64
2022/04/17 00:53:23;;;;;;;8.20;4.22;;;11.20;48.00;;;;;;5056474;28;20116;-64
2022/04/17 00:55:49;;;;;;;8.25;4.60;;;11.10;47.90;;;;;;5057336;28;20033;-64
2022/04/17 00:58:15;;;;;;;7.15;4.10;;;11.10;48.00;;;;;;5051064;28;20477;-64
2022/04/17 01:00:43;;;;;;;8.63;3.88;;;11.10;48.10;;;;;;5056802;28;20041;-64
2022/04/17 01:03:12;;;;;;;8.75;3.90;;;11.10;48.10;;;;;;5057068;28;20037;-63
2022/04/17 01:05:43;;;;;;;8.68;4.20;;;11.00;48.30;;;;;;5057403;28;20043;-64
2022/04/17 01:08:12;;;;;;;7.35;3.60;;;11.00;48.60;;;;;;5053290;28;20087;-63
2022/04/17 01:10:38;;;;;;;7.55;4.20;;;11.00;49.30;;;;;;5056857;28;20068;-63
2022/04/17 01:13:04;;;;;;;7.82;3.85;;;11.00;48.80;;;;;;5054210;28;20079;-63
2022/04/17 01:15:30;;;;;;;8.07;4.43;;;11.00;49.00;;;;;;5040445;28;20144;-63
2022/04/17 01:17:56;;;;;;;8.98;4.43;;;10.90;49.00;;;;;;5038519;28;20109;-63
2022/04/17 01:20:22;;;;;;;7.45;3.50;;;10.90;49.10;;;;;;5038126;28;20355;-63
2022/04/17 01:22:49;;;;;;;7.10;3.80;;;10.90;49.00;;;;;;5037883;28;20086;-64
2022/04/17 01:28:00;;;;;;;8.25;4.35;;;10.80;48.90;;;;;;5043215;28;20025;-62
2022/04/17 01:30:26;;;;;;;8.43;4.20;;;10.80;49.00;;;;;;5034490;28;20022;-62
2022/04/17 01:32:52;;;;;;;7.93;4.32;;;10.80;49.10;;;;;;5035760;28;20498;-62
2022/04/17 01:35:18;;;;;;;8.43;4.00;;;10.70;49.30;;;;;;5038918;28;20429;-62
2022/04/17 01:37:49;;;;;;;7.78;4.10;;;10.70;49.40;;;;;;5035939;28;20032;-62
2022/04/17 01:40:15;;;;;;;7.15;3.80;;;10.70;49.70;;;;;;5042427;28;20029;-62
2022/04/17 01:42:41;;;;;;;7.90;4.10;;;10.60;49.70;;;;;;5035740;28;20037;-62
2022/04/17 01:45:07;;;;;;;7.63;4.28;;;10.60;50.00;;;;;;5043203;28;20032;-62
2022/04/17 01:47:33;;;;;;;7.88;3.97;;;10.50;50.10;;;;;;5034500;28;20037;-62
2022/04/17 01:49:59;;;;;;;9.50;4.38;;;10.50;50.30;;;;;;5039334;28;20382;-62
2022/04/17 01:52:25;;;;;;;6.78;4.05;;;10.50;50.40;;;;;;5038157;28;20013;-62
2022/04/17 01:54:51;;;;;;;8.45;4.43;;;10.40;50.50;;;;;;5039203;28;20091;-62
2022/04/17 01:57:17;;;;;;;8.82;4.78;;;10.40;50.60;;;;;;5041179;28;20037;-62
2022/04/17 01:59:43;;;;;;;10.10;4.47;;;10.40;50.70;;;;;;5039909;28;20421;-61
2022/04/17 02:02:08;;;;;;;7.47;4.10;;;10.30;50.80;;;;;;5034066;28;20493;-62
2022/04/17 02:04:35;;;;;;;7.85;4.32;;;10.30;51.00;;;;;;5038551;28;20033;-62
2022/04/17 02:07:05;;;;;;;9.07;4.65;;;10.20;50.90;;;;;;5058387;28;20025;-62
2022/04/17 02:09:31;;;;;;;8.20;4.53;;;10.20;51.00;;;;;;5061770;28;20112;-62
2022/04/17 02:11:56;;;;;;;8.18;4.18;;;10.20;51.10;;;;;;5065291;28;20125;-62
2022/04/17 02:14:22;;;;;;;8.85;5.15;;;10.10;51.20;;;;;;5056011;28;20029;-62
2022/04/17 02:16:48;;;;;;;8.85;4.70;;;10.10;51.40;;;;;;5055372;28;20017;-62
2022/04/17 02:19:14;;;;;;;8.52;4.32;;;10.10;51.50;;;;;;5056194;28;20060;-62
2022/04/17 02:21:39;;;;;;;8.32;4.57;;;10.10;51.50;;;;;;5055325;28;20055;-62
2022/04/17 02:24:06;;;;;;;9.05;4.82;;;10.00;51.60;;;;;;5055018;28;20361;-62
2022/04/17 02:26:32;;;;;;;8.55;4.40;;;10.00;51.70;;;;;;5054939;28;20036;-62
2022/04/17 02:28:59;;;;;;;9.57;4.97;;;10.00;51.80;;;;;;5054028;28;20492;-62
2022/04/17 02:31:26;;;;;;;8.40;4.07;;;9.90;51.80;;;;;;5072412;28;20353;-62
2022/04/17 02:33:52;;;;;;;9.70;4.72;;;10.00;51.90;;;;;;5068373;28;20037;-62
2022/04/17 02:36:18;;;;;;;9.77;4.88;;;9.90;51.90;;;;;;5055444;28;20031;-62
2022/04/17 02:38:43;;;;;;;8.65;4.82;;;9.90;51.90;;;;;;5054793;28;20406;-62
2022/04/17 02:41:09;;;;;;;8.43;4.80;;;9.90;51.90;;;;;;5071534;28;20028;-62
2022/04/17 02:43:34;;;;;;;7.78;4.40;;;9.90;52.00;;;;;;5056667;28;20033;-61
2022/04/17 02:46:00;;;;;;;9.65;5.07;;;9.80;52.00;;;;;;5054372;28;20025;-61
2022/04/17 02:48:26;;;;;;;10.65;5.45;;;9.80;52.20;;;;;;5072778;28;20032;-62
2022/04/17 02:50:52;;;;;;;9.93;4.65;;;9.80;52.30;;;;;;5059021;28;20128;-61
2022/04/17 02:53:18;;;;;;;8.80;4.93;;;9.70;52.30;;;;;;5054758;28;20052;-62
2022/04/17 02:55:47;;;;;;;8.23;4.70;;;9.80;53.10;;;;;;5054563;28;20032;-62
2022/04/17 02:58:13;;;;;;;9.23;5.22;;;9.70;52.60;;;;;;5054216;28;20020;-62
2022/04/17 03:06:10;;;;;;;9.30;4.88;;;9.60;52.80;;;;;;5054219;28;20057;-61
2022/04/17 03:08:39;;;;;;;9.27;4.97;;;9.60;52.90;;;;;;5054275;28;20489;-61
2022/04/17 03:11:04;;;;;;;9.27;5.07;;;9.50;52.90;;;;;;5068060;28;20473;-62
2022/04/17 03:13:31;;;;;;;10.13;5.25;;;9.50;52.90;;;;;;5056950;28;20032;-62
2022/04/17 03:15:56;;;;;;;10.52;5.35;;;9.50;53.00;;;;;;5052912;28;20049;-62
2022/04/17 03:18:22;;;;;;;8.95;4.93;;;9.50;53.20;;;;;;5054182;28;20053;-62
2022/04/17 03:20:47;;;;;;;10.55;5.15;;;9.50;53.20;;;;;;5055174;28;20029;-61
2022/04/17 03:23:14;;;;;;;9.43;5.03;;;9.50;53.30;;;;;;5054206;28;20361;-61
2022/04/17 03:25:40;;;;;;;9.65;5.25;;;9.40;53.30;;;;;;5053648;28;20032;-61
2022/04/17 03:28:06;;;;;;;9.80;5.45;;;9.40;53.20;;;;;;5054195;28;20025;-61
2022/04/17 03:30:31;;;;;;;10.23;5.55;;;9.40;53.20;;;;;;5064361;28;20032;-61
2022/04/17 03:32:59;;;;;;;9.50;5.45;;;9.40;53.20;;;;;;5073384;28;20084;-62
2022/04/17 03:35:25;;;;;;;9.35;5.82;;;9.40;53.20;;;;;;5053760;28;20029;-61
2022/04/17 03:37:53;;;;;;;9.05;4.90;;;9.40;53.30;;;;;;5054221;28;20079;-61
2022/04/17 03:40:19;;;;;;;9.18;5.57;;;9.40;53.30;;;;;;5054672;28;20021;-61
2022/04/17 03:42:45;;;;;;;9.05;5.38;;;9.40;53.30;;;;;;5052807;28;20347;-62
2022/04/17 03:45:12;;;;;;;10.65;6.03;;;9.40;53.40;;;;;;5053816;28;20124;-62
2022/04/17 03:47:38;;;;;;;10.10;5.35;;;9.40;53.40;;;;;;5054210;28;20358;-62
2022/04/17 03:50:05;;;;;;;10.15;5.78;;;9.40;53.30;;;;;;5058139;28;20123;-62
2022/04/17 03:52:42;;;;;;;9.52;5.30;;;9.40;53.20;;;;;;5054060;28;20025;-62
2022/04/17 03:55:08;;;;;;;10.02;6.15;;;9.40;53.40;;;;;;5052657;28;20033;-61
2022/04/17 03:57:34;;;;;;;11.48;5.78;;;9.30;53.40;;;;;;5053373;28;20248;-61
2022/04/17 03:59:59;;;;;;;9.60;5.53;;;9.30;53.30;;;;;;5055079;28;20106;-61
2022/04/17 04:02:27;;;;;;;8.65;5.40;;;9.30;53.40;;;;;;5053855;28;20335;-62
2022/04/17 04:04:53;;;;;;;9.57;5.63;;;9.30;53.30;;;;;;5053473;28;20032;-61
2022/04/17 04:07:19;;;;;;;10.07;5.20;;;9.30;53.20;;;;;;5053636;28;20021;-61
2022/04/17 04:09:44;;;;;;;9.65;5.43;;;9.30;53.30;;;;;;5054919;28;20029;-61
2022/04/17 04:12:10;;;;;;;11.25;6.15;;;9.30;53.30;;;;;;5057509;28;20025;-62
2022/04/17 04:14:36;;;;;;;10.85;6.32;;;9.20;53.30;;;;;;5057439;28;20029;-61
2022/04/17 04:17:02;;;;;;;12.75;6.32;;;9.30;53.40;;;;;;5057468;28;20029;-62
2022/04/17 04:19:28;;;;;;;9.90;5.82;;;9.20;53.40;;;;;;5055899;28;20047;-61
2022/04/17 04:21:53;;;;;;;9.50;5.57;;;9.20;53.50;;;;;;5056473;28;20115;-62
2022/04/17 04:24:19;;;;;;;9.95;5.80;;;9.20;53.70;;;;;;5057084;28;20033;-62
2022/04/17 04:28:33;;;;;;;12.25;6.55;;;9.10;53.70;;;;;;5051210;28;20094;-62
2022/04/17 04:29:33;;;;;;;9.75;6.10;;;9.10;53.90;;;;;;5040390;28;20017;-62
2022/04/17 04:31:59;;;;;;;9.77;5.68;;;9.00;53.90;;;;;;5056677;28;20071;-62
2022/04/17 04:34:24;;;;;;;10.35;5.93;;;9.00;54.00;;;;;;5055881;28;20060;-61
2022/04/17 04:36:50;;;;;;;12.38;5.80;;;9.00;54.10;;;;;;5056965;28;20017;-65
2022/04/17 04:39:17;;;;;;;9.90;5.82;;;9.00;54.00;;;;;;5055611;28;20045;-62
2022/04/17 04:41:42;;;;;;;12.02;6.10;;;9.00;54.10;;;;;;5053315;28;20021;-62
2022/04/17 04:44:08;;;;;;;10.18;6.20;;;9.00;54.00;;;;;;5055284;28;20028;-61
2022/04/17 04:46:33;;;;;;;10.45;6.07;;;9.00;54.00;;;;;;5056980;28;20408;-61
2022/04/17 04:51:43;;;;;;;11.43;6.55;;;9.00;54.00;;;;;;5046145;28;20025;-62
2022/04/17 04:54:09;;;;;;;11.20;6.03;;;9.00;54.10;;;;;;5056894;28;20029;-61
2022/04/17 04:56:34;;;;;;;10.52;5.95;;;9.00;54.20;;;;;;5056738;28;20106;-62
2022/04/17 04:59:00;;;;;;;12.07;6.15;;;9.00;54.10;;;;;;5057237;28;20044;-61
2022/04/17 05:01:25;;;;;;;11.43;6.45;;;9.10;54.00;;;;;;5041655;28;20084;-62
2022/04/17 05:03:51;;;;;;;11.13;6.68;;;9.10;53.90;;;;;;5055230;28;20116;-62
2022/04/17 05:06:17;;;;;;;9.98;6.38;;;9.10;53.80;;;;;;5058945;28;20040;-62
2022/04/17 05:08:43;;;;;;;10.77;6.72;;;9.10;53.90;;;;;;5061092;28;20029;-62
2022/04/17 05:11:09;;;;;;;11.48;6.30;;;9.10;54.00;;;;;;5065249;28;20025;-62
2022/04/17 05:13:35;;;;;;;12.05;5.55;;;9.00;53.90;;;;;;5076924;28;20083;-62
2022/04/17 05:16:01;;;;;;;10.32;6.22;;;9.10;54.00;;;;;;5075943;28;20298;-61
2022/04/17 05:18:27;;;;;;;10.85;6.80;;;9.00;54.00;;;;;;5075283;28;20429;-62
2022/04/17 05:20:54;;;;;;;12.57;6.82;;;9.10;54.00;;;;;;5067328;28;20031;-62
2022/04/17 05:23:25;;;;;;;12.05;6.45;;;9.10;53.90;;;;;;5043613;28;20033;-61
2022/04/17 05:25:55;;;;;;;;;;;9.10;54.00;;;;;;5036261;28;20311;-62
2022/04/17 05:28:21;;;;;;;9.27;5.65;;;9.10;54.00;;;;;;5050760;28;19952;-62
2022/04/17 05:30:47;;;;;;;10.50;6.30;;;9.10;54.00;;;;;;5036933;28;20115;-61
2022/04/17 05:33:13;;;;;;;10.50;6.03;;;9.20;54.10;;;;;;5038569;28;20073;-62
2022/04/17 05:35:39;;;;;;;11.57;6.65;;;9.30;54.20;;;;;;5035634;28;20389;-61
2022/04/17 05:38:06;;;;;;;10.43;7.00;;;9.30;54.10;;;;;;5035008;28;20033;-61
2022/04/17 05:40:37;;;;;;;10.52;6.50;;;9.40;54.10;;;;;;5034885;28;20033;-61
2022/04/17 05:43:03;;;;;;;;;;;9.70;53.50;;;;;;5035859;28;20112;-62
2022/04/17 05:45:30;;;;;;;10.32;5.60;;;10.10;52.90;;;;;;5038593;28;20008;-61
2022/04/17 05:47:56;;;;;;;9.85;6.10;;;10.40;52.30;;;;;;5038272;28;20138;-62
2022/04/17 05:50:22;;;;;;;10.80;6.00;;;10.80;51.50;;;;;;5034411;28;20037;-62
2022/04/17 05:52:48;;;;;;;9.88;6.47;;;11.20;50.70;;;;;;5035713;28;20033;-62
2022/04/17 05:55:14;;;;;;;10.23;6.50;;;11.40;50.00;;;;;;5034805;28;20033;-62
2022/04/17 05:57:40;;;;;;;11.18;6.70;;;11.50;49.60;;;;;;5035633;28;20040;-62
2022/04/17 06:00:08;;;;;;;9.57;5.97;;;11.80;49.10;;;;;;5034576;28;20104;-62
2022/04/17 06:02:39;;;;;;;13.18;6.72;;;12.40;48.40;;;;;;5037121;28;20029;-62
2022/04/17 06:05:05;;;;;;;12.15;6.60;;;12.90;47.50;;;;;;5038204;28;20091;-63
2022/04/17 06:07:31;;;;;;;11.38;6.78;;;13.00;47.10;;;;;;5026931;28;20033;-61
2022/04/17 06:10:02;;;;;;;10.98;6.30;;;13.20;46.90;;;;;;5055485;28;20033;-61
2022/04/17 06:12:27;;;;;;;13.70;6.63;;;13.40;46.30;;;;;;5055578;28;20029;-61
2022/04/17 06:14:53;;;;;;;10.70;6.03;;;13.90;45.70;;;;;;5056475;28;20074;-61
2022/04/17 06:17:18;;;;;;;13.05;6.68;;;14.50;44.60;;;;;;5046631;28;20072;-61
2022/04/17 06:19:44;;;;;;;10.80;6.53;;;15.40;43.50;;;;;;5042415;28;20029;-61
2022/04/17 06:22:11;;;;;;;10.85;6.47;;;16.10;42.10;;;;;;5052904;28;20036;-61
2022/04/17 06:24:36;;;;;;;11.27;6.40;;;16.60;41.30;;;;;;5054023;28;20025;-61
2022/04/17 06:27:02;;;;;;;10.95;6.05;;;16.80;40.70;;;;;;5037015;28;20040;-62
2022/04/17 06:29:28;;;;;;;9.52;5.78;;;16.80;40.50;;;;;;5017518;28;20021;-60
2022/04/17 06:31:54;;;;;;;11.00;6.25;;;16.60;40.70;;;;;;5033686;28;20116;-62
2022/04/17 06:34:19;;;;;;;10.85;6.63;;;16.30;40.90;;;;;;5037226;28;20034;-61
2022/04/17 06:36:45;;;;;;;10.88;5.85;;;16.00;41.10;;;;;;5055172;28;20036;-61
2022/04/17 06:39:11;;;;;;;9.52;5.97;;;15.80;41.30;;;;;;5055160;28;20059;-61
2022/04/17 06:41:37;;;;;;;10.55;6.22;;;15.60;41.30;;;;;;5063194;28;20024;-61
2022/04/17 06:44:03;;;;;;;9.75;5.80;;;15.50;41.30;;;;;;5075082;28;20040;-61
2022/04/17 06:46:28;;;;;;;8.35;5.18;;;15.50;41.30;;;;;;5075981;28;20392;-61
2022/04/17 06:48:54;;;;;;;9.57;4.90;;;15.40;41.20;;;;;;5075059;28;20032;-61
2022/04/17 06:51:23;;;;;;;10.43;5.85;;;15.50;41.10;;;;;;5065971;28;20033;-61
2022/04/17 06:53:50;;;;;;;11.82;5.93;;;15.50;41.00;;;;;;5055173;28;20085;-62
2022/04/17 06:56:18;;;;;;;10.20;6.00;;;15.40;40.80;;;;;;5055204;28;20025;-61
2022/04/17 06:58:45;;;;;;;10.90;5.90;;;15.40;40.70;;;;;;5055539;28;20041;-61
2022/04/17 07:01:11;;;;;;;9.32;5.72;;;15.50;40.50;;;;;;5056586;28;20025;-61
2022/04/17 07:03:36;;;;;;;9.25;5.05;;;15.60;40.40;;;;;;5075266;28;20038;-61
2022/04/17 07:06:02;;;;;;;9.82;6.00;;;15.60;40.30;;;;;;5070019;28;20029;-61
2022/04/17 07:08:28;;;;;;;8.60;5.15;;;15.70;40.10;;;;;;5054894;28;20021;-61
2022/04/17 07:10:54;;;;;;;9.68;5.35;;;15.80;40.00;;;;;;5056009;28;20061;-62
2022/04/17 07:13:21;;;;;;;10.48;5.07;;;15.90;39.80;;;;;;5053728;28;20056;-61
2022/04/17 07:15:48;;;;;;;9.90;5.38;;;16.00;39.80;;;;;;5052754;28;20434;-62
2022/04/17 07:18:14;;;;;;;9.90;5.20;;;16.10;39.60;;;;;;5066103;28;20342;-61
2022/04/17 07:20:40;;;;;;;8.07;4.80;;;16.10;39.50;;;;;;5053507;28;20028;-61
2022/04/17 07:23:08;;;;;;;8.32;4.95;;;16.30;39.60;;;;;;5038747;28;20044;-61
2022/04/17 07:25:36;;;;;;;7.85;4.80;;;16.30;39.40;;;;;;5055996;28;20064;-61
2022/04/17 07:28:03;;;;;;;9.50;5.13;;;16.40;39.20;;;;;;5055088;28;20024;-62
2022/04/17 07:30:31;;;;;;;8.52;5.05;;;16.50;39.20;;;;;;5064790;28;20024;-62
2022/04/17 07:33:01;;;;;;;9.10;4.80;;;16.60;39.10;;;;;;5072756;28;20044;-62
2022/04/17 07:35:28;;;;;;;8.27;4.75;;;16.80;39.00;;;;;;5061756;28;20032;-62
2022/04/17 07:37:59;;;;;;;10.02;5.28;;;16.90;38.80;;;;;;5054664;28;20322;-62
2022/04/17 07:40:29;;;;;;;8.60;4.15;;;17.10;38.60;;;;;;5055821;28;20037;-62
2022/04/17 07:42:56;;;;;;;9.50;4.88;;;17.30;38.40;;;;;;5068195;28;20090;-65
2022/04/17 07:45:23;;;;;;;8.98;4.45;;;17.30;38.20;;;;;;5061993;28;20040;-62
2022/04/17 07:47:50;;;;;;;9.23;4.55;;;17.40;38.00;;;;;;5058691;28;20087;-61
2022/04/17 07:50:21;;;;;;;10.18;4.63;;;17.50;37.80;;;;;;5070333;28;20028;-62
2022/04/17 07:52:46;;;;;;;9.52;4.75;;;17.70;37.80;;;;;;5076646;28;20024;-61
2022/04/17 07:55:14;;;;;;;8.93;4.65;;;17.80;37.50;;;;;;5070767;28;20319;-62
2022/04/17 08:00:28;;;;;;;9.10;4.18;;;17.90;37.40;;;;;;5061648;28;20033;-62
2022/04/17 08:05:44;;;;;;;9.95;4.60;;;18.10;37.30;;;;;;5084936;28;20048;-62
2022/04/17 08:08:10;;;;;;;8.50;4.85;;;18.20;37.10;;;;;;5076117;28;20083;-62
2022/04/17 08:10:37;;;;;;;8.98;4.55;;;18.30;36.90;;;;;;5076585;28;20056;-62
2022/04/17 08:13:03;;;;;;;6.97;4.13;;;18.30;36.80;;;;;;5082020;28;20081;-62
2022/04/17 08:15:29;;;;;;;9.13;4.45;;;18.40;36.70;;;;;;5096737;28;20449;-62
2022/04/17 08:17:54;;;;;;;7.13;4.10;;;18.50;36.70;;;;;;5096780;28;20096;-62
2022/04/17 08:20:20;;;;;;;9.25;4.40;;;18.60;36.60;;;;;;5081130;28;20119;-62
2022/04/17 08:22:46;;;;;;;8.48;4.18;;;18.80;36.50;;;;;;5078514;28;20385;-62
2022/04/17 08:25:12;;;;;;;9.75;4.28;;;19.00;36.40;;;;;;5086082;28;20024;-62
2022/04/17 08:27:49;;;;;;;7.53;3.83;;;19.10;36.10;;;;;;5096561;28;20365;-62
2022/04/17 08:30:20;;;;;;;7.78;4.15;;;19.10;35.90;;;;;;5095735;28;20048;-62
2022/04/17 08:32:45;;;;;;;7.35;3.88;;;19.10;36.00;;;;;;5090355;28;20040;-62
2022/04/17 08:35:11;;;;;;;8.15;4.03;;;19.20;36.00;;;;;;5068682;28;20037;-63
2022/04/17 08:37:36;;;;;;;7.78;4.10;;;19.30;36.10;;;;;;5063755;28;20028;-62
2022/04/17 08:40:04;;;;;;;7.85;4.35;;;19.40;36.00;;;;;;5074672;28;20032;-63
2022/04/17 08:42:31;;;;;;;6.78;3.70;;;19.60;35.90;;;;;;5059515;28;20094;-63
2022/04/17 08:44:56;;;;;;;7.45;4.15;;;19.60;35.70;;;;;;5049929;28;20102;-62
2022/04/17 08:47:22;;;;;;;8.70;4.70;;;19.70;35.70;;;;;;5057835;28;20327;-63
2022/04/17 08:49:50;;;;;;;7.25;3.72;;;19.70;35.60;;;;;;5072356;28;20064;-63
2022/04/17 08:52:16;;;;;;;8.00;4.10;;;19.70;35.60;;;;;;5067555;28;20029;-63
2022/04/17 08:54:43;;;;;;;9.93;3.75;;;19.80;35.50;;;;;;5058841;28;20480;-63
2022/04/17 08:57:10;;;;;;;7.38;3.85;;;19.80;35.60;;;;;;5072107;28;20040;-63
2022/04/17 08:59:36;;;;;;;7.80;3.95;;;19.90;35.40;;;;;;5073721;28;20029;-63
2022/04/17 09:02:07;;;;;;;7.45;4.05;;;19.90;35.30;;;;;;5076903;28;20051;-62
2022/04/17 09:04:33;;;;;;;7.63;3.65;;;19.90;35.20;;;;;;5075215;28;20029;-63
2022/04/17 09:07:00;;;;;;;8.05;4.13;;;19.80;35.30;;;;;;5076090;28;20462;-63
2022/04/17 09:09:26;;;;;;;7.70;4.25;;;19.90;35.30;;;;;;5062363;28;20051;-62
2022/04/17 09:11:55;;;;;;;7.47;3.50;;;19.90;35.30;;;;;;5056944;28;20112;-63
2022/04/17 09:14:21;;;;;;;7.57;3.92;;;19.80;35.20;;;;;;5057631;28;20350;-63
2022/04/17 09:16:50;;;;;;;5.93;3.53;;;19.90;35.20;;;;;;5075819;28;20035;-63
2022/04/17 09:19:18;;;;;;;8.50;3.88;;;20.00;35.00;;;;;;5075833;28;20024;-63
2022/04/17 09:21:45;;;;;;;7.85;3.47;;;20.00;34.90;;;;;;5076807;28;20064;-63
2022/04/17 09:24:19;;;;;;;7.80;3.45;;;20.10;35.10;;;;;;5077426;28;20111;-63
2022/04/17 09:26:51;;;;;;;5.93;2.85;;;20.20;34.80;;;;;;5069234;28;20037;-63
2022/04/17 09:29:19;;;;;;;7.43;3.42;;;20.30;34.80;;;;;;5056534;28;20036;-63
2022/04/17 09:31:45;;;;;;;6.25;2.95;;;20.30;34.80;;;;;;5056885;28;20179;-63
2022/04/17 09:34:11;;;;;;;5.68;2.78;;;20.30;34.60;;;;;;5056809;28;20091;-63
2022/04/17 09:36:38;;;;;;;6.15;3.03;;;20.40;34.60;;;;;;5056297;28;20457;-62
2022/04/17 09:39:11;;;;;;;6.72;3.30;;;20.40;34.50;;;;;;5055369;28;20044;-62
2022/04/17 09:41:51;;;;;;;6.95;3.45;;;20.50;34.50;;;;;;5056056;28;20032;-62
2022/04/17 09:44:46;;;;;;;6.93;3.20;;;20.50;34.30;;;;;;5070740;28;20048;-63
2022/04/17 09:47:16;;;;;;;7.05;2.85;;;20.50;34.20;;;;;;5053831;28;20075;-62
2022/04/17 09:50:06;;;;;;;6.65;2.92;;;20.60;34.40;;;;;;5056286;28;20370;-62
2022/04/17 09:52:44;;;;;;;6.75;2.70;;;20.70;34.30;;;;;;5056279;28;20029;-64
2022/04/17 09:55:10;;;;;;;6.07;2.83;;;20.80;34.10;;;;;;5051152;28;20024;-63
2022/04/17 09:57:38;;;;;;;6.18;2.92;;;20.80;34.00;;;;;;5076585;28;20100;-63
2022/04/17 10:00:11;;;;;;;6.45;3.00;;;20.80;33.80;;;;;;5065044;28;20110;-62
2022/04/17 10:02:42;;;;;;;5.78;2.67;;;20.70;33.80;;;;;;5055615;28;20063;-62
2022/04/17 10:05:10;;;;;;;5.60;2.65;;;20.80;33.90;;;;;;5058161;28;20040;-63
2022/04/17 10:07:38;;;;;;;5.28;2.70;;;20.90;34.10;;;;;;5056968;28;20033;-63
2022/04/17 10:10:05;;;;;;;6.05;2.70;;;21.00;33.90;;;;;;5056196;28;20123;-63
2022/04/17 10:12:34;;;;;;;7.22;3.35;;;21.00;33.70;;;;;;5060872;28;20025;-62
2022/04/17 10:15:07;;;;;;;6.60;2.85;;;21.00;33.80;;;;;;5062348;28;20453;-63
2022/04/17 10:17:38;;;;;;;6.22;3.00;;;21.00;33.90;;;;;;5055643;28;20036;-63
2022/04/17 10:20:08;;;;;;;4.93;2.60;;;21.10;33.70;;;;;;5055539;28;20037;-62
2022/04/17 10:22:34;;;;;;;6.13;2.50;;;21.10;33.40;;;;;;5063017;28;20029;-63
2022/04/17 10:25:02;;;;;;;7.50;2.75;;;21.10;33.20;;;;;;5056872;28;20040;-63
2022/04/17 10:27:38;;;;;;;7.07;2.60;;;21.10;33.20;;;;;;5056424;28;20441;-63
2022/04/17 10:30:21;;;;;;;5.97;2.47;;;21.10;33.00;;;;;;5067245;28;20031;-63
2022/04/17 10:33:01;;;;;;;6.30;2.65;;;21.10;32.60;;;;;;5058113;28;20045;-63
2022/04/17 10:35:40;;;;;;;6.60;2.97;;;21.00;32.60;;;;;;5055969;28;20343;-62
2022/04/17 10:38:17;;;;;;;18.75;3.03;;;21.10;32.80;;;;;;5055807;28;20033;-63
2022/04/17 10:41:02;;;;;;;5.68;2.30;;;21.00;32.60;;;;;;5057548;28;20091;-63
2022/04/17 10:43:51;;;;;;;5.28;2.30;;;21.20;32.80;;;;;;5053812;28;20043;-63
2022/04/17 10:46:18;;;;;;;5.40;2.55;;;21.30;32.70;;;;;;5055838;28;20116;-63
2022/04/17 10:48:48;;;;;;;6.82;2.88;;;21.30;32.60;;;;;;5055708;28;20033;-62
2022/04/17 10:51:15;;;;;;;6.32;2.75;;;21.40;32.40;;;;;;5055434;28;20044;-63
2022/04/17 10:54:01;;;;;;;7.03;3.22;;;21.50;32.40;;;;;;5058346;28;20030;-65
2022/04/17 10:56:27;;;;;;;7.93;3.17;;;21.70;32.30;;;;;;5061260;28;20029;-66
2022/04/17 10:58:55;;;;;;;5.65;3.03;;;21.60;32.50;;;;;;5038409;28;20358;-66
2022/04/17 11:01:42;;;;;;;5.97;3.00;;;21.70;32.60;;;;;;5045171;28;20028;-66
2022/04/17 11:04:25;;;;;;;5.85;3.00;;;21.70;32.30;;;;;;5059607;28;20068;-66
2022/04/17 11:07:11;;;;;;;6.85;3.20;;;21.70;32.50;;;;;;5062590;28;20086;-65
2022/04/17 11:09:41;;;;;;;7.40;3.65;;;21.80;32.60;;;;;;5062824;28;20028;-66
2022/04/17 11:12:10;;;;;;;6.68;3.47;;;21.80;32.60;;;;;;5070742;28;20032;-66
2022/04/17 11:14:39;;;;;;;7.75;3.15;;;21.80;32.90;;;;;;5063685;28;20031;-66
2022/04/17 11:17:09;;;;;;;6.00;2.95;;;21.80;32.80;;;;;;5069279;28;20025;-66
2022/04/17 11:19:40;;;;;;;6.65;3.65;;;21.90;32.70;;;;;;5060843;28;20051;-66
2022/04/17 11:22:08;;;;;;;5.95;3.22;;;21.80;32.60;;;;;;5066433;28;20025;-66
2022/04/17 11:25:02;;;;;;;6.65;2.97;;;21.90;32.70;;;;;;5054921;28;20175;-66
2022/04/17 11:27:36;;;;;;;7.65;3.45;;;22.00;32.70;;;;;;5055819;28;20025;-66
2022/04/17 11:30:03;;;;;;;6.28;2.83;;;22.00;32.40;;;;;;5068977;28;20033;-66
2022/04/17 11:32:29;;;;;;;5.70;2.88;;;22.00;32.20;;;;;;5050734;28;20045;-66
2022/04/17 11:35:02;;;;;;;5.13;2.35;;;21.90;32.10;;;;;;5053967;28;20464;-66
2022/04/17 11:37:32;;;;;;;6.80;3.13;;;21.90;32.00;;;;;;5055381;28;20029;-67
2022/04/17 11:40:09;;;;;;;5.82;3.00;;;22.00;31.90;;;;;;5055138;28;20354;-66
2022/04/17 11:42:47;;;;;;;6.97;3.00;;;22.00;31.60;;;;;;5058904;28;20029;-67
2022/04/17 11:45:16;;;;;;;4.88;2.42;;;22.00;31.60;;;;;;5051547;28;20120;-67
2022/04/17 11:47:42;;;;;;;5.85;2.30;;;21.90;31.40;;;;;;5058284;28;20353;-67
2022/04/17 11:50:11;;;;;;;6.35;2.88;;;21.90;31.40;;;;;;5043751;28;20024;-67
2022/04/17 11:52:37;;;;;;;5.75;2.47;;;21.80;31.20;;;;;;5063056;28;20067;-67
2022/04/17 11:55:05;;;;;;;6.55;2.70;;;21.70;31.10;;;;;;5055455;28;20029;-67
2022/04/17 11:57:32;;;;;;;5.35;2.58;;;21.70;31.10;;;;;;5053930;28;20033;-66
2022/04/17 11:59:58;;;;;;;6.05;2.80;;;21.70;31.00;;;;;;5056272;28;20091;-66
2022/04/17 12:02:26;;;;;;;5.13;2.72;;;21.60;31.00;;;;;;5055547;28;20111;-66
2022/04/17 12:04:54;;;;;;;6.60;3.15;;;21.50;31.00;;;;;;5052970;28;20031;-66
2022/04/17 12:07:24;;;;;;;6.40;2.42;;;21.40;31.10;;;;;;5053200;28;20029;-66
2022/04/17 12:10:01;;;;;;;5.68;2.60;;;21.40;31.30;;;;;;5053003;28;20029;-66
2022/04/17 12:12:35;;;;;;;6.40;2.90;;;21.30;31.40;;;;;;5055336;28;20024;-66
2022/04/17 12:15:03;;;;;;;6.18;2.55;;;21.30;31.30;;;;;;5055037;28;20033;-66
2022/04/17 12:17:33;;;;;;;8.35;3.20;;;21.20;31.50;;;;;;5056249;28;20031;-65
2022/04/17 12:20:00;;;;;;;6.80;2.97;;;21.10;31.70;;;;;;5056655;28;20120;-65
2022/04/17 12:22:26;;;;;;;8.02;3.58;;;21.00;31.90;;;;;;5056532;28;20036;-65
2022/04/17 12:24:53;;;;;;;7.28;2.95;;;20.90;32.00;;;;;;5060123;28;20028;-65
2022/04/17 12:27:21;;;;;;;7.28;3.30;;;20.90;32.30;;;;;;5053297;28;20033;-65
2022/04/17 12:29:47;;;;;;;6.43;2.80;;;20.70;32.40;;;;;;5054422;28;20130;-65
2022/04/17 12:32:19;;;;;;;6.93;2.97;;;20.70;32.50;;;;;;5057724;28;20041;-65
2022/04/17 12:34:45;;;;;;;7.03;3.05;;;20.60;32.40;;;;;;5058803;28;20027;-65
2022/04/17 12:37:28;;;;;;;7.47;3.42;;;20.60;32.60;;;;;;5074451;28;20051;-65
2022/04/17 12:40:07;;;;;;;7.70;3.65;;;20.60;32.60;;;;;;5070241;28;20082;-65
2022/04/17 12:42:32;;;;;;;6.88;3.25;;;20.50;32.70;;;;;;5075672;28;20078;-65
2022/04/17 12:44:58;;;;;;;7.55;3.08;;;20.40;32.90;;;;;;5074448;28;20343;-65
2022/04/17 12:47:23;;;;;;;6.35;3.33;;;20.40;33.00;;;;;;5073052;28;20020;-65
2022/04/17 12:49:49;;;;;;;7.20;3.50;;;20.30;32.90;;;;;;5069372;28;20033;-65
2022/04/17 12:52:21;;;;;;;7.20;3.50;;;20.30;32.90;;;;;;5058046;28;20468;-65
2022/04/17 12:54:48;;;;;;;6.95;3.65;;;20.30;33.00;;;;;;5055984;28;20036;-65
2022/04/17 12:57:19;;;;;;;7.30;3.53;;;20.30;33.10;;;;;;5065362;28;20028;-65
2022/04/17 12:59:47;;;;;;;;;;;20.30;32.90;;;;;;5074440;28;20075;-65
2022/04/17 13:02:15;;;;;;;6.65;3.22;;;20.20;33.10;;;;;;5053649;28;19921;-65
2022/04/17 13:04:47;;;;;;;5.97;3.33;;;20.10;33.00;;;;;;5058195;28;20021;-65
2022/04/17 13:07:15;;;;;;;6.78;3.42;;;20.10;33.00;;;;;;5058219;28;20033;-65
2022/04/17 13:09:54;;;;;;;6.97;3.90;;;20.10;33.10;;;;;;5075176;28;20035;-65